createdAt,value
2017-04-14T00:00:02.521Z,7.23
2017-04-14T00:01:02.369Z,8.03
2017-04-14T00:02:01.767Z,7.93
2017-04-14T00:03:01.329Z,7.40
2017-04-14T00:04:00.842Z,7.37
2017-04-14T00:05:00.377Z,8.32
2017-04-14T00:05:59.853Z,9.10
2017-04-14T00:06:59.222Z,8.25
2017-04-14T00:07:58.663Z,8.83
2017-04-14T00:08:58.036Z,7.65
2017-04-14T00:09:57.440Z,8.30
2017-04-14T00:10:57.034Z,8.93
2017-04-14T00:11:56.330Z,7.77
2017-04-14T00:12:55.727Z,8.30
2017-04-14T00:13:55.152Z,7.48
2017-04-14T00:14:54.532Z,8.07
2017-04-14T00:15:53.853Z,9.02
2017-04-14T00:16:53.428Z,7.95
2017-04-14T00:17:52.915Z,8.00
2017-04-14T00:18:52.547Z,7.78
2017-04-14T00:19:52.698Z,9.35
2017-04-14T00:20:52.174Z,8.03
2017-04-14T00:21:51.597Z,8.63
2017-04-14T00:22:51.106Z,8.35
2017-04-14T00:23:50.508Z,8.77
2017-04-14T00:24:50.035Z,7.75
2017-04-14T00:25:49.567Z,9.15
2017-04-14T00:26:48.978Z,8.87
2017-04-14T00:27:48.402Z,9.10
2017-04-14T00:28:48.771Z,8.17
2017-04-14T00:29:48.211Z,10.12
2017-04-14T00:30:48.363Z,10.15
2017-04-14T00:31:47.737Z,10.15
2017-04-14T00:32:47.189Z,9.52
2017-04-14T00:33:46.952Z,11.77
2017-04-14T00:34:46.468Z,10.00
2017-04-14T00:35:45.796Z,10.25
2017-04-14T00:36:45.203Z,9.78
2017-04-14T00:37:44.624Z,11.03
2017-04-14T00:38:44.089Z,9.93
2017-04-14T00:39:43.512Z,10.80
2017-04-14T00:40:42.927Z,10.47
2017-04-14T00:41:42.442Z,10.68
2017-04-14T00:42:41.893Z,12.02
2017-04-14T00:43:41.322Z,10.80
2017-04-14T00:44:40.707Z,10.22
2017-04-14T00:45:40.183Z,11.92
2017-04-14T00:46:39.587Z,10.78
2017-04-14T00:47:39.158Z,10.02
2017-04-14T00:48:38.569Z,10.22
2017-04-14T00:49:37.973Z,10.62
2017-04-14T00:50:37.411Z,10.27
2017-04-14T00:51:37.651Z,10.15
2017-04-14T00:52:37.216Z,10.18
2017-04-14T00:53:36.600Z,10.48
2017-04-14T00:54:36.035Z,10.83
2017-04-14T00:55:35.427Z,11.92
2017-04-14T00:56:34.758Z,10.68
2017-04-14T00:57:34.119Z,11.25
2017-04-14T00:58:33.556Z,10.22
2017-04-14T00:59:32.969Z,10.67
2017-04-14T01:00:32.433Z,10.60
2017-04-14T01:01:31.812Z,10.85
2017-04-14T01:02:31.178Z,10.85
2017-04-14T01:03:31.337Z,11.85
2017-04-14T01:04:30.503Z,11.12
2017-04-14T01:05:29.620Z,10.03
2017-04-14T01:06:28.741Z,10.97
2017-04-14T01:07:27.853Z,11.57
2017-04-14T01:08:26.962Z,10.63
2017-04-14T01:09:26.066Z,9.68
2017-04-14T01:10:25.205Z,9.97
2017-04-14T01:11:24.305Z,10.03
2017-04-14T01:12:23.430Z,10.58
2017-04-14T01:13:22.537Z,9.88
2017-04-14T01:14:21.662Z,10.27
2017-04-14T01:15:20.801Z,9.97
2017-04-14T01:16:20.093Z,10.88
2017-04-14T01:17:19.185Z,10.18
2017-04-14T01:18:18.329Z,11.38
2017-04-14T01:19:17.449Z,10.75
2017-04-14T01:20:16.581Z,9.95
2017-04-14T01:21:15.694Z,10.70
2017-04-14T01:22:14.862Z,11.45
2017-04-14T01:23:14.025Z,9.45
2017-04-14T01:24:13.945Z,11.23
2017-04-14T01:25:13.083Z,10.05
2017-04-14T01:26:12.194Z,10.28
2017-04-14T01:27:11.344Z,10.82
2017-04-14T01:28:10.485Z,10.40
2017-04-14T01:29:09.616Z,11.42
2017-04-14T01:30:08.774Z,10.50
2017-04-14T01:31:07.954Z,10.68
2017-04-14T01:32:07.088Z,11.07
2017-04-14T01:33:06.209Z,10.77
2017-04-14T01:34:06.450Z,9.93
2017-04-14T01:35:05.582Z,10.75
2017-04-14T01:36:04.730Z,11.50
2017-04-14T01:37:03.882Z,11.17
2017-04-14T01:38:03.095Z,12.77
2017-04-14T01:39:02.290Z,11.65
2017-04-14T01:40:01.446Z,11.08
2017-04-14T01:41:01.322Z,11.23
2017-04-14T01:42:00.439Z,11.13
2017-04-14T01:42:59.578Z,11.98
2017-04-14T01:43:58.721Z,11.05
2017-04-14T01:44:57.842Z,11.12
2017-04-14T01:45:57.058Z,11.52
2017-04-14T01:46:56.218Z,11.43
2017-04-14T01:47:55.331Z,11.42
2017-04-14T01:48:54.449Z,10.17
2017-04-14T01:49:53.590Z,11.70
2017-04-14T01:50:52.723Z,11.42
2017-04-14T01:51:51.863Z,11.55
2017-04-14T01:52:51.004Z,12.13
2017-04-14T01:53:50.143Z,12.97
2017-04-14T01:54:49.262Z,11.40
2017-04-14T01:55:49.114Z,13.10
2017-04-14T01:56:48.274Z,11.97
2017-04-14T01:57:47.446Z,12.00
2017-04-14T01:58:46.576Z,11.75
2017-04-14T01:59:45.706Z,11.07
2017-04-14T02:00:45.562Z,13.08
2017-04-14T02:01:44.707Z,12.33
2017-04-14T02:02:43.918Z,12.45
2017-04-14T02:03:43.123Z,12.02
2017-04-14T02:04:42.254Z,13.25
2017-04-14T02:05:41.722Z,12.73
2017-04-14T02:06:40.850Z,13.62
2017-04-14T02:07:40.756Z,12.85
2017-04-14T02:08:39.878Z,12.67
2017-04-14T02:09:39.035Z,12.68
2017-04-14T02:10:38.151Z,13.23
2017-04-14T02:11:37.266Z,12.92
2017-04-14T02:12:36.391Z,13.23
2017-04-14T02:13:35.514Z,12.67
2017-04-14T02:14:34.670Z,13.60
2017-04-14T02:15:33.862Z,12.27
2017-04-14T02:16:32.978Z,12.25
2017-04-14T02:17:32.135Z,12.90
2017-04-14T02:18:31.291Z,12.77
2017-04-14T02:19:30.407Z,13.08
2017-04-14T02:20:29.530Z,14.55
2017-04-14T02:21:28.709Z,13.58
2017-04-14T02:22:27.830Z,14.63
2017-04-14T02:23:26.951Z,14.52
2017-04-14T02:24:26.075Z,14.42
2017-04-14T02:25:25.217Z,14.10
2017-04-14T02:26:24.338Z,14.20
2017-04-14T02:27:23.490Z,14.68
2017-04-14T02:28:22.625Z,14.73
2017-04-14T02:29:21.762Z,15.22
2017-04-14T02:30:20.875Z,15.50
2017-04-14T02:31:19.994Z,14.38
2017-04-14T02:32:19.122Z,15.35
2017-04-14T02:33:18.282Z,15.67
2017-04-14T02:34:17.414Z,15.65
2017-04-14T02:35:16.550Z,16.65
2017-04-14T02:36:15.667Z,15.58
2017-04-14T02:37:14.798Z,14.83
2017-04-14T02:38:13.943Z,15.58
2017-04-14T02:39:13.115Z,16.03
2017-04-14T02:40:12.235Z,16.47
2017-04-14T02:41:11.346Z,16.02
2017-04-14T02:42:10.466Z,17.68
2017-04-14T02:43:10.368Z,19.28
2017-04-14T02:44:09.486Z,18.25
2017-04-14T02:45:08.667Z,18.83
2017-04-14T02:46:07.792Z,19.27
2017-04-14T02:47:06.916Z,19.28
2017-04-14T02:48:06.021Z,18.78
2017-04-14T02:49:05.170Z,18.98
2017-04-14T02:50:04.310Z,18.70
2017-04-14T02:51:03.442Z,19.32
2017-04-14T02:52:02.563Z,18.92
2017-04-14T02:53:01.684Z,20.00
2017-04-14T02:54:00.798Z,18.05
2017-04-14T02:54:59.910Z,17.53
2017-04-14T02:55:59.787Z,18.05
2017-04-14T02:56:59.347Z,17.87
2017-04-14T02:57:59.450Z,19.73
2017-04-14T02:58:58.563Z,19.55
2017-04-14T02:59:57.703Z,20.67
2017-04-14T03:00:56.842Z,20.65
2017-04-14T03:01:55.962Z,20.72
2017-04-14T03:02:55.114Z,19.50
2017-04-14T03:03:54.235Z,19.72
2017-04-14T03:04:53.355Z,19.15
2017-04-14T03:05:52.486Z,20.92
2017-04-14T03:06:51.609Z,20.33
2017-04-14T03:07:51.466Z,20.58
2017-04-14T03:08:50.737Z,22.05
2017-04-14T03:09:49.862Z,21.47
2017-04-14T03:10:48.979Z,20.10
2017-04-14T03:11:48.103Z,20.93
2017-04-14T03:12:47.226Z,22.53
2017-04-14T03:13:46.344Z,22.43
2017-04-14T03:14:45.505Z,20.90
2017-04-14T03:15:44.614Z,22.20
2017-04-14T03:16:43.742Z,21.48
2017-04-14T03:17:42.854Z,21.00
2017-04-14T03:18:41.967Z,23.33
2017-04-14T03:19:41.092Z,21.93
2017-04-14T03:20:40.370Z,22.52
2017-04-14T03:21:39.487Z,22.30
2017-04-14T03:22:39.371Z,21.35
2017-04-14T03:23:38.490Z,21.97
2017-04-14T03:24:37.610Z,22.12
2017-04-14T03:25:36.731Z,23.20
2017-04-14T03:26:35.898Z,23.67
2017-04-14T03:27:35.017Z,23.27
2017-04-14T03:28:34.137Z,23.45
2017-04-14T03:29:33.241Z,23.70
2017-04-14T03:30:32.362Z,23.52
2017-04-14T03:31:31.474Z,23.68
2017-04-14T03:32:30.634Z,23.28
2017-04-14T03:33:29.800Z,22.77
2017-04-14T03:34:28.914Z,22.27
2017-04-14T03:35:28.039Z,22.25
2017-04-14T03:36:27.170Z,23.92
2017-04-14T03:37:26.306Z,25.15
2017-04-14T03:38:25.546Z,23.43
2017-04-14T03:39:24.733Z,24.52
2017-04-14T03:40:23.890Z,22.82
2017-04-14T03:41:23.005Z,24.13
2017-04-14T03:42:22.113Z,25.48
2017-04-14T03:43:21.222Z,25.02
2017-04-14T03:44:20.378Z,25.37
2017-04-14T03:45:19.501Z,24.48
2017-04-14T03:46:18.658Z,24.08
2017-04-14T03:47:17.799Z,22.73
2017-04-14T03:48:16.914Z,24.68
2017-04-14T03:49:16.028Z,23.18
2017-04-14T03:50:15.182Z,23.43
2017-04-14T03:51:14.302Z,22.58
2017-04-14T03:52:13.418Z,24.28
2017-04-14T03:53:12.543Z,23.57
2017-04-14T03:54:11.662Z,25.12
2017-04-14T03:55:10.794Z,23.50
2017-04-14T03:56:09.942Z,24.65
2017-04-14T03:57:09.042Z,23.70
2017-04-14T03:58:08.171Z,23.60
2017-04-14T03:59:07.283Z,22.82
2017-04-14T04:00:06.410Z,25.03
2017-04-14T04:01:05.519Z,27.08
2017-04-14T04:02:04.666Z,25.95
2017-04-14T04:03:03.816Z,23.88
2017-04-14T04:04:02.930Z,24.38
2017-04-14T04:05:02.062Z,25.10
2017-04-14T04:06:01.183Z,24.98
2017-04-14T04:07:00.314Z,26.57
2017-04-14T04:08:00.202Z,26.43
2017-04-14T04:08:59.331Z,26.48
2017-04-14T04:09:58.460Z,26.82
2017-04-14T04:10:57.591Z,25.60
2017-04-14T04:11:56.711Z,26.77
2017-04-14T04:12:55.827Z,27.13
2017-04-14T04:13:55.199Z,25.70
2017-04-14T04:14:54.322Z,26.40
2017-04-14T04:15:53.446Z,25.78
2017-04-14T04:16:52.578Z,24.33
2017-04-14T04:17:51.696Z,22.28
2017-04-14T04:18:51.562Z,25.20
2017-04-14T04:19:51.435Z,24.88
2017-04-14T04:20:50.558Z,25.18
2017-04-14T04:21:49.694Z,22.70
2017-04-14T04:22:48.882Z,25.10
2017-04-14T04:23:48.008Z,25.45
2017-04-14T04:24:47.127Z,23.83
2017-04-14T04:25:47.021Z,25.05
2017-04-14T04:26:46.146Z,25.05
2017-04-14T04:27:45.278Z,24.22
2017-04-14T04:28:44.394Z,25.37
2017-04-14T04:29:43.512Z,27.38
2017-04-14T04:30:42.665Z,25.80
2017-04-14T04:32:45.034Z,26.68
2017-04-14T04:33:49.367Z,24.22
2017-04-14T04:34:48.490Z,23.78
2017-04-14T04:35:47.607Z,23.18
2017-04-14T04:36:47.474Z,25.33
2017-04-14T04:37:46.783Z,24.62
2017-04-14T04:38:45.907Z,24.95
2017-04-14T04:39:45.022Z,27.28
2017-04-14T04:40:44.146Z,25.22
2017-04-14T04:41:43.277Z,25.33
2017-04-14T04:42:42.393Z,25.78
2017-04-14T04:43:41.629Z,26.32
2017-04-14T04:44:41.499Z,25.17
2017-04-14T04:45:40.610Z,25.88
2017-04-14T04:46:40.546Z,24.07
2017-04-14T04:47:40.043Z,26.28
2017-04-14T04:48:39.158Z,24.20
2017-04-14T04:49:38.554Z,23.67
2017-04-14T04:50:37.703Z,27.07
2017-04-14T04:51:36.827Z,24.63
2017-04-14T04:52:35.979Z,24.28
2017-04-14T04:53:35.110Z,22.97
2017-04-14T04:54:34.226Z,24.18
2017-04-14T04:55:34.133Z,24.53
2017-04-14T04:56:33.250Z,25.43
2017-04-14T04:57:32.370Z,23.62
2017-04-14T04:58:31.482Z,25.27
2017-04-14T04:59:30.609Z,23.55
2017-04-14T05:00:29.737Z,25.27
2017-04-14T05:01:28.886Z,24.30
2017-04-14T05:02:28.007Z,24.82
2017-04-14T05:03:27.126Z,24.22
2017-04-14T05:04:26.982Z,23.97
2017-04-14T05:05:26.097Z,24.38
2017-04-14T05:06:25.229Z,25.35
2017-04-14T05:07:24.393Z,24.62
2017-04-14T05:08:24.246Z,23.30
2017-04-14T05:09:23.355Z,25.53
2017-04-14T05:10:22.480Z,23.58
2017-04-14T05:11:21.595Z,23.10
2017-04-14T05:12:20.719Z,25.17
2017-04-14T05:13:19.958Z,23.92
2017-04-14T05:14:19.074Z,24.72
2017-04-14T05:15:18.187Z,22.87
2017-04-14T05:16:17.345Z,24.02
2017-04-14T05:17:16.462Z,24.17
2017-04-14T05:18:15.581Z,24.45
2017-04-14T05:19:14.746Z,23.15
2017-04-14T05:20:13.873Z,23.25
2017-04-14T05:21:12.994Z,23.55
2017-04-14T05:22:12.134Z,24.92
2017-04-14T05:23:11.256Z,23.33
2017-04-14T05:24:11.122Z,23.10
2017-04-14T05:25:10.351Z,24.33
2017-04-14T05:26:09.461Z,23.70
2017-04-14T05:27:08.578Z,22.90
2017-04-14T05:28:07.723Z,22.25
2017-04-14T05:29:06.835Z,22.73
2017-04-14T05:30:05.954Z,23.63
2017-04-14T05:31:05.170Z,25.13
2017-04-14T05:32:04.371Z,23.65
2017-04-14T05:33:03.482Z,24.20
2017-04-14T05:34:03.344Z,23.82
2017-04-14T05:35:02.472Z,22.55
2017-04-14T05:36:02.365Z,22.83
2017-04-14T05:37:02.362Z,23.90
2017-04-14T05:38:01.478Z,23.40
2017-04-14T05:39:00.598Z,22.97
2017-04-14T05:39:59.706Z,23.03
2017-04-14T05:40:58.844Z,22.78
2017-04-14T05:41:57.954Z,23.60
2017-04-14T05:42:57.871Z,23.03
2017-04-14T05:43:57.031Z,24.10
2017-04-14T05:44:56.154Z,23.25
2017-04-14T05:45:55.377Z,23.02
2017-04-14T05:46:56.215Z,23.20
2017-04-14T05:47:55.367Z,23.10
2017-04-14T05:48:54.565Z,22.45
2017-04-14T05:49:53.720Z,23.78
2017-04-14T05:50:52.884Z,22.52
2017-04-14T05:51:52.211Z,24.48
2017-04-14T05:52:51.367Z,23.48
2017-04-14T05:53:50.523Z,23.08
2017-04-14T05:54:50.542Z,24.40
2017-04-14T05:55:49.700Z,23.35
2017-04-14T05:56:49.060Z,22.45
2017-04-14T05:57:48.427Z,23.87
2017-04-14T05:58:47.826Z,22.18
2017-04-14T05:59:47.204Z,24.65
2017-04-14T06:00:46.861Z,24.50
2017-04-14T06:01:46.233Z,23.93
2017-04-14T06:02:45.613Z,22.07
2017-04-14T06:03:45.105Z,22.67
2017-04-14T06:04:44.569Z,23.27
2017-04-14T06:05:44.022Z,24.95
2017-04-14T06:06:43.433Z,23.73
2017-04-14T06:07:42.801Z,25.15
2017-04-14T06:08:42.500Z,24.12
2017-04-14T06:09:42.210Z,21.65
2017-04-14T06:10:41.767Z,23.18
2017-04-14T06:11:41.393Z,23.45
2017-04-14T06:12:40.848Z,23.37
2017-04-14T06:13:40.374Z,24.85
2017-04-14T06:14:40.007Z,24.67
2017-04-14T06:15:40.268Z,24.17
2017-04-14T06:16:39.575Z,23.32
2017-04-14T06:17:38.926Z,23.13
2017-04-14T06:18:38.323Z,23.85
2017-04-14T06:19:37.799Z,23.60
2017-04-14T06:20:37.201Z,23.55
2017-04-14T06:21:36.604Z,23.97
2017-04-14T06:22:36.043Z,24.02
2017-04-14T06:23:35.378Z,22.58
2017-04-14T06:24:34.804Z,22.17
2017-04-14T06:25:34.220Z,22.03
2017-04-14T06:26:33.591Z,23.80
2017-04-14T06:27:32.987Z,23.75
2017-04-14T06:28:32.386Z,23.68
2017-04-14T06:29:31.789Z,24.00
2017-04-14T06:30:31.265Z,23.60
2017-04-14T06:31:30.678Z,23.88
2017-04-14T06:32:30.189Z,24.05
2017-04-14T06:33:30.355Z,25.18
2017-04-14T06:34:29.764Z,24.05
2017-04-14T06:35:29.132Z,23.37
2017-04-14T06:36:28.695Z,24.75
2017-04-14T06:37:28.154Z,24.00
2017-04-14T06:38:27.583Z,25.53
2017-04-14T06:39:27.030Z,24.63
2017-04-14T06:40:26.457Z,22.88
2017-04-14T06:41:26.414Z,24.45
2017-04-14T06:42:25.966Z,24.18
2017-04-14T06:43:26.186Z,23.92
2017-04-14T06:44:26.271Z,22.37
2017-04-14T06:45:25.754Z,24.65
2017-04-14T06:46:25.205Z,24.25
2017-04-14T06:47:24.668Z,25.08
2017-04-14T06:48:24.802Z,24.43
2017-04-14T06:49:24.193Z,24.45
2017-04-14T06:50:23.531Z,25.22
2017-04-14T06:51:23.576Z,23.12
2017-04-14T06:52:22.951Z,23.67
2017-04-14T06:53:22.353Z,23.23
2017-04-14T06:54:21.844Z,24.47
2017-04-14T06:55:21.183Z,24.75
2017-04-14T06:56:20.883Z,24.20
2017-04-14T06:57:20.283Z,24.72
2017-04-14T06:58:19.644Z,24.58
2017-04-14T06:59:19.053Z,23.22
2017-04-14T07:00:18.616Z,23.35
2017-04-14T07:01:18.756Z,24.35
2017-04-14T07:02:18.224Z,24.15
2017-04-14T07:03:17.584Z,24.70
2017-04-14T07:04:17.683Z,24.57
2017-04-14T07:05:17.139Z,25.30
2017-04-14T07:06:16.594Z,24.80
2017-04-14T07:07:15.966Z,24.40
2017-04-14T07:08:15.304Z,24.13
2017-04-14T07:09:15.412Z,24.28
2017-04-14T07:10:14.744Z,25.75
2017-04-14T07:11:14.056Z,24.60
2017-04-14T07:12:13.471Z,25.60
2017-04-14T07:13:13.619Z,25.23
2017-04-14T07:14:13.012Z,24.73
2017-04-14T07:15:12.468Z,25.77
2017-04-14T07:16:11.947Z,25.15
2017-04-14T07:17:11.242Z,24.72
2017-04-14T07:18:10.769Z,25.57
2017-04-14T07:19:10.144Z,25.05
2017-04-14T07:20:09.544Z,24.73
2017-04-14T07:21:09.252Z,23.80
2017-04-14T07:22:08.724Z,25.65
2017-04-14T07:23:08.070Z,23.52
2017-04-14T07:24:07.366Z,24.92
2017-04-14T07:25:06.687Z,25.93
2017-04-14T07:26:06.633Z,24.78
2017-04-14T07:27:06.038Z,24.70
2017-04-14T07:28:05.470Z,23.55
2017-04-14T07:29:05.688Z,23.10
2017-04-14T07:30:05.492Z,24.80
2017-04-14T07:31:05.019Z,25.52
2017-04-14T07:32:05.325Z,24.05
2017-04-14T07:33:04.922Z,24.90
2017-04-14T07:34:04.450Z,24.48
2017-04-14T07:35:04.029Z,23.97
2017-04-14T07:36:04.417Z,24.50
2017-04-14T07:37:04.074Z,25.57
2017-04-14T07:38:03.455Z,24.75
2017-04-14T07:39:02.807Z,24.05
2017-04-14T07:40:02.172Z,24.38
2017-04-14T07:41:01.641Z,25.00
2017-04-14T07:42:01.255Z,24.42
2017-04-14T07:43:00.899Z,24.70
2017-04-14T07:44:01.072Z,23.33
2017-04-14T07:45:00.414Z,25.32
2017-04-14T07:45:59.871Z,24.80
2017-04-14T07:46:59.038Z,25.23
2017-04-14T07:47:58.794Z,23.18
2017-04-14T07:48:58.155Z,22.67
2017-04-14T07:49:57.490Z,24.25
2017-04-14T07:50:57.042Z,24.13
2017-04-14T07:51:56.641Z,25.27
2017-04-14T07:52:56.461Z,23.95
2017-04-14T07:53:56.950Z,23.68
2017-04-14T07:54:56.323Z,24.28
2017-04-14T07:55:55.790Z,22.97
2017-04-14T07:56:55.320Z,24.22
2017-04-14T07:57:54.662Z,24.12
2017-04-14T07:58:54.806Z,24.65
2017-04-14T07:59:54.337Z,26.32
2017-04-14T08:00:53.836Z,24.53
2017-04-14T08:01:53.265Z,23.05
2017-04-14T08:02:52.657Z,23.22
2017-04-14T08:03:52.097Z,22.37
2017-04-14T08:04:51.686Z,23.48
2017-04-14T08:05:51.312Z,23.80
2017-04-14T08:06:51.208Z,24.60
2017-04-14T08:07:51.138Z,24.05
2017-04-14T08:08:50.700Z,23.80
2017-04-14T08:09:50.247Z,22.98
2017-04-14T08:10:49.658Z,23.45
2017-04-14T08:11:49.305Z,23.12
2017-04-14T08:12:49.628Z,22.77
2017-04-14T08:13:49.190Z,23.88
2017-04-14T08:14:48.680Z,24.05
2017-04-14T08:15:48.384Z,23.90
2017-04-14T08:16:48.084Z,22.55
2017-04-14T08:17:47.784Z,22.05
2017-04-14T08:18:47.320Z,22.85
2017-04-14T08:19:46.775Z,21.17
2017-04-14T08:20:46.269Z,22.38
2017-04-14T08:21:45.953Z,23.37
2017-04-14T08:22:46.109Z,22.55
2017-04-14T08:23:46.740Z,22.13
2017-04-14T08:24:47.753Z,22.30
2017-04-14T08:25:48.706Z,22.83
2017-04-14T08:26:48.234Z,21.70
2017-04-14T08:27:47.855Z,23.80
2017-04-14T08:28:47.538Z,21.67
2017-04-14T08:29:47.049Z,22.73
2017-04-14T08:30:47.365Z,22.60
2017-04-14T08:31:46.863Z,20.92
2017-04-14T08:32:46.472Z,23.20
2017-04-14T08:33:45.972Z,22.58
2017-04-14T08:34:46.584Z,22.05
2017-04-14T08:35:46.179Z,22.87
2017-04-14T08:36:45.664Z,21.32
2017-04-14T08:37:45.116Z,22.55
2017-04-14T08:38:44.607Z,22.30
2017-04-14T08:39:44.130Z,23.72
2017-04-14T08:40:43.852Z,23.07
2017-04-14T08:41:43.440Z,22.17
2017-04-14T08:42:42.955Z,22.43
2017-04-14T08:43:42.439Z,21.02
2017-04-14T08:44:42.016Z,22.73
2017-04-14T08:45:41.888Z,22.32
2017-04-14T08:46:42.049Z,22.92
2017-04-14T08:47:41.747Z,22.98
2017-04-14T08:48:41.183Z,22.38
2017-04-14T08:49:40.676Z,21.15
2017-04-14T08:50:40.456Z,22.78
2017-04-14T08:51:41.058Z,22.32
2017-04-14T08:52:41.393Z,22.12
2017-04-14T08:53:41.734Z,21.65
2017-04-14T08:54:41.133Z,21.92
2017-04-14T08:55:40.562Z,21.70
2017-04-14T08:56:40.311Z,22.48
2017-04-14T08:57:40.486Z,21.37
2017-04-14T08:58:39.998Z,22.78
2017-04-14T08:59:39.799Z,22.80
2017-04-14T09:00:40.166Z,23.17
2017-04-14T09:01:39.500Z,21.00
2017-04-14T09:02:38.818Z,23.07
2017-04-14T09:03:38.279Z,22.92
2017-04-14T09:04:37.825Z,23.05
2017-04-14T09:05:37.164Z,21.50
2017-04-14T09:06:36.736Z,22.47
2017-04-14T09:07:36.068Z,21.33
2017-04-14T09:08:35.433Z,22.73
2017-04-14T09:09:35.044Z,23.73
2017-04-14T09:10:34.740Z,21.58
2017-04-14T09:11:33.988Z,22.40
2017-04-14T09:12:33.434Z,23.72
2017-04-14T09:13:40.169Z,23.00
2017-04-14T09:14:40.664Z,22.02
2017-04-14T09:15:40.108Z,23.13
2017-04-14T09:16:39.423Z,23.47
2017-04-14T09:17:38.891Z,22.63
2017-04-14T09:18:38.341Z,21.98
2017-04-14T09:19:37.851Z,23.37
2017-04-14T09:20:37.372Z,22.33
2017-04-14T09:21:36.865Z,22.25
2017-04-14T09:22:36.391Z,23.38
2017-04-14T09:23:35.758Z,22.53
2017-04-14T09:24:35.248Z,22.68
2017-04-14T09:25:34.650Z,22.95
2017-04-14T09:26:34.411Z,22.47
2017-04-14T09:27:33.918Z,21.88
2017-04-14T09:28:33.340Z,20.75
2017-04-14T09:29:32.825Z,23.72
2017-04-14T09:30:32.359Z,23.23
2017-04-14T09:31:32.944Z,22.37
2017-04-14T09:32:33.287Z,22.18
2017-04-14T09:33:32.671Z,22.78
2017-04-14T09:34:32.761Z,22.15
2017-04-14T09:35:32.179Z,23.05
2017-04-14T09:36:32.306Z,23.23
2017-04-14T09:37:31.757Z,22.82
2017-04-14T09:38:31.394Z,23.25
2017-04-14T09:39:30.951Z,23.52
2017-04-14T09:40:30.365Z,21.63
2017-04-14T09:41:29.795Z,24.07
2017-04-14T09:42:29.233Z,22.45
2017-04-14T09:43:28.754Z,23.87
2017-04-14T09:44:28.834Z,24.47
2017-04-14T09:45:28.418Z,22.62
2017-04-14T09:46:27.855Z,24.03
2017-04-14T09:47:28.147Z,23.80
2017-04-14T09:48:27.602Z,22.85
2017-04-14T09:49:26.958Z,23.93
2017-04-14T09:50:26.737Z,24.82
2017-04-14T09:51:26.292Z,23.57
2017-04-14T09:52:25.998Z,24.77
2017-04-14T09:53:25.576Z,24.85
2017-04-14T09:54:25.113Z,23.17
2017-04-14T09:55:24.597Z,24.93
2017-04-14T09:56:24.501Z,24.68
2017-04-14T09:57:23.851Z,24.02
2017-04-14T09:58:23.275Z,24.38
2017-04-14T09:59:22.615Z,23.52
2017-04-14T10:00:22.289Z,24.80
2017-04-14T10:01:21.619Z,23.65
2017-04-14T10:02:21.093Z,25.67
2017-04-14T10:03:20.689Z,25.27
2017-04-14T10:04:20.007Z,23.60
2017-04-14T10:05:19.554Z,25.88
2017-04-14T10:06:19.343Z,24.17
2017-04-14T10:07:18.961Z,24.18
2017-04-14T10:08:18.578Z,24.58
2017-04-14T10:09:18.055Z,24.33
2017-04-14T10:10:17.464Z,23.40
2017-04-14T10:11:16.841Z,25.45
2017-04-14T10:12:16.342Z,24.52
2017-04-14T10:13:15.827Z,23.53
2017-04-14T10:14:15.403Z,23.15
2017-04-14T10:15:15.071Z,24.62
2017-04-14T10:16:14.545Z,23.80
2017-04-14T10:17:13.999Z,22.98
2017-04-14T10:18:13.585Z,24.47
2017-04-14T10:19:13.120Z,24.70
2017-04-14T10:20:13.390Z,23.13
2017-04-14T10:21:13.430Z,24.10
2017-04-14T10:22:12.825Z,24.33
2017-04-14T10:23:12.348Z,23.93
2017-04-14T10:24:12.585Z,23.52
2017-04-14T10:25:12.051Z,21.85
2017-04-14T10:26:11.919Z,22.90
2017-04-14T10:27:11.631Z,24.53
2017-04-14T10:28:10.972Z,23.18
2017-04-14T10:29:10.499Z,23.07
2017-04-14T10:30:09.892Z,23.18
2017-04-14T10:31:09.312Z,23.25
2017-04-14T10:32:09.343Z,22.30
2017-04-14T10:33:09.640Z,22.93
2017-04-14T10:34:09.147Z,22.57
2017-04-14T10:35:08.530Z,23.48
2017-04-14T10:36:08.019Z,22.88
2017-04-14T10:37:07.393Z,22.77
2017-04-14T10:38:07.149Z,22.63
2017-04-14T10:39:06.763Z,22.37
2017-04-14T10:40:06.175Z,21.07
2017-04-14T10:41:05.536Z,21.92
2017-04-14T10:42:05.046Z,22.97
2017-04-14T10:43:04.671Z,23.13
2017-04-14T10:44:04.127Z,22.22
2017-04-14T10:45:03.883Z,22.18
2017-04-14T10:46:03.568Z,24.43
2017-04-14T10:47:03.061Z,22.50
2017-04-14T10:48:02.383Z,21.33
2017-04-14T10:49:01.770Z,20.38
2017-04-14T10:50:02.300Z,20.80
2017-04-14T10:51:01.452Z,19.37
2017-04-14T10:52:00.778Z,19.67
2017-04-14T10:53:00.142Z,20.82
2017-04-14T10:53:59.882Z,19.33
2017-04-14T10:54:59.639Z,21.08
2017-04-14T10:56:00.059Z,21.35
2017-04-14T10:56:59.517Z,20.85
2017-04-14T10:57:59.031Z,21.45
2017-04-14T10:58:58.351Z,19.60
2017-04-14T10:59:58.152Z,20.00
2017-04-14T11:00:57.742Z,20.10
2017-04-14T11:01:57.670Z,20.75
2017-04-14T11:02:57.941Z,20.23
2017-04-14T11:03:57.427Z,20.32
2017-04-14T11:04:57.007Z,18.93
2017-04-14T11:05:56.647Z,19.23
2017-04-14T11:06:56.107Z,18.02
2017-04-14T11:07:55.600Z,19.38
2017-04-14T11:08:55.127Z,19.42
2017-04-14T11:09:54.802Z,18.80
2017-04-14T11:10:54.078Z,18.85
2017-04-14T11:11:53.721Z,20.03
2017-04-14T11:12:53.151Z,18.42
2017-04-14T11:13:53.216Z,18.67
2017-04-14T11:14:52.636Z,19.15
2017-04-14T11:15:53.007Z,19.90
2017-04-14T11:16:52.304Z,19.25
2017-04-14T11:17:51.888Z,19.88
2017-04-14T11:18:51.393Z,20.43
2017-04-14T11:19:51.264Z,21.50
2017-04-14T11:20:51.240Z,20.93
2017-04-14T11:21:50.681Z,21.08
2017-04-14T11:22:50.074Z,20.50
2017-04-14T11:23:49.803Z,21.22
2017-04-14T11:24:49.527Z,21.90
2017-04-14T11:25:48.903Z,22.18
2017-04-14T11:26:48.471Z,23.45
2017-04-14T11:27:47.939Z,22.15
2017-04-14T11:28:47.588Z,23.97
2017-04-14T11:29:47.323Z,22.93
2017-04-14T11:30:47.561Z,22.35
2017-04-14T11:31:47.768Z,22.93
2017-04-14T11:32:47.323Z,22.47
2017-04-14T11:33:46.935Z,22.42
2017-04-14T11:34:47.435Z,22.52
2017-04-14T11:35:47.894Z,23.68
2017-04-14T11:36:47.562Z,24.05
2017-04-14T11:37:47.455Z,22.68
2017-04-14T11:38:46.813Z,21.30
2017-04-14T11:39:46.338Z,24.60
2017-04-14T11:40:45.824Z,21.93
2017-04-14T11:41:45.347Z,22.12
2017-04-14T11:42:45.351Z,23.08
2017-04-14T11:43:44.857Z,21.58
2017-04-14T11:44:44.993Z,22.18
2017-04-14T11:45:44.402Z,22.05
2017-04-14T11:46:43.951Z,22.43
2017-04-14T11:47:43.477Z,23.37
2017-04-14T11:48:43.003Z,22.90
2017-04-14T11:49:42.818Z,22.52
2017-04-14T11:50:42.446Z,22.43
2017-04-14T11:51:42.794Z,24.80
2017-04-14T11:52:42.533Z,23.17
2017-04-14T11:53:42.101Z,23.25
2017-04-14T11:54:42.152Z,24.27
2017-04-14T11:55:41.833Z,24.13
2017-04-14T11:56:41.508Z,24.02
2017-04-14T11:57:41.560Z,23.65
2017-04-14T11:58:41.522Z,22.42
2017-04-14T11:59:41.199Z,22.28
2017-04-14T12:00:40.949Z,23.12
2017-04-14T12:01:40.752Z,23.67
2017-04-14T12:02:40.527Z,21.93
2017-04-14T12:03:40.361Z,23.97
2017-04-14T12:04:40.682Z,22.48
2017-04-14T12:05:42.131Z,22.62
2017-04-14T12:06:42.472Z,22.43
2017-04-14T12:07:42.197Z,22.98
2017-04-14T12:08:41.891Z,23.30
2017-04-14T12:09:42.207Z,22.28
2017-04-14T12:10:42.558Z,22.48
2017-04-14T12:11:42.322Z,21.83
2017-04-14T12:12:41.866Z,23.58
2017-04-14T12:13:41.488Z,22.68
2017-04-14T12:14:40.767Z,21.77
2017-04-14T12:15:41.047Z,21.88
2017-04-14T12:16:40.596Z,22.13
2017-04-14T12:17:40.047Z,22.12
2017-04-14T12:18:39.636Z,22.48
2017-04-14T12:19:39.187Z,22.02
2017-04-14T12:20:38.679Z,23.47
2017-04-14T12:21:38.028Z,22.58
2017-04-14T12:22:38.351Z,21.27
2017-04-14T12:23:37.739Z,21.43
2017-04-14T12:24:37.187Z,21.77
2017-04-14T12:25:36.833Z,22.58
2017-04-14T12:26:37.251Z,21.35
2017-04-14T12:27:36.595Z,22.32
2017-04-14T12:28:36.227Z,22.18
2017-04-14T12:29:35.712Z,23.60
2017-04-14T12:30:35.126Z,22.70
2017-04-14T12:31:34.861Z,22.88
2017-04-14T12:32:34.289Z,20.82
2017-04-14T12:33:33.553Z,21.25
2017-04-14T12:34:33.723Z,21.53
2017-04-14T12:35:33.160Z,20.62
2017-04-14T12:36:32.694Z,20.30
2017-04-14T12:37:32.282Z,21.37
2017-04-14T12:38:31.749Z,20.85
2017-04-14T12:39:31.288Z,21.10
2017-04-14T12:40:31.050Z,20.35
2017-04-14T12:41:30.792Z,21.35
2017-04-14T12:42:30.166Z,20.98
2017-04-14T12:43:29.764Z,21.00
2017-04-14T12:44:29.411Z,19.82
2017-04-14T12:45:28.977Z,22.00
2017-04-14T12:46:28.629Z,22.15
2017-04-14T12:47:28.198Z,21.25